sensor_id;sensor_type;location;lat;lon;timestamp;temperature;humidity
530;DHT22;251;48.704;9.210;2022-10-16T00:00:49;15.10;73.30
530;DHT22;251;48.704;9.210;2022-10-16T00:03:17;15.00;72.30
530;DHT22;251;48.704;9.210;2022-10-16T00:05:44;15.10;72.20
530;DHT22;251;48.704;9.210;2022-10-16T00:08:11;15.40;73.60
530;DHT22;251;48.704;9.210;2022-10-16T00:10:39;15.00;74.40
530;DHT22;251;48.704;9.210;2022-10-16T00:13:07;15.10;74.30
530;DHT22;251;48.704;9.210;2022-10-16T00:15:35;15.00;74.70
530;DHT22;251;48.704;9.210;2022-10-16T00:18:03;14.90;75.60
530;DHT22;251;48.704;9.210;2022-10-16T00:20:33;15.00;74.00
530;DHT22;251;48.704;9.210;2022-10-16T00:23:02;15.20;75.10
530;DHT22;251;48.704;9.210;2022-10-16T00:25:29;15.30;74.00
530;DHT22;251;48.704;9.210;2022-10-16T00:27:58;15.00;71.80
530;DHT22;251;48.704;9.210;2022-10-16T00:30:25;15.20;74.10
530;DHT22;251;48.704;9.210;2022-10-16T00:32:53;15.20;72.60
530;DHT22;251;48.704;9.210;2022-10-16T00:35:20;14.80;73.00
530;DHT22;251;48.704;9.210;2022-10-16T00:37:48;15.20;73.90
530;DHT22;251;48.704;9.210;2022-10-16T00:40:15;14.90;73.60
530;DHT22;251;48.704;9.210;2022-10-16T00:42:42;15.10;74.10
530;DHT22;251;48.704;9.210;2022-10-16T00:45:09;14.90;72.70
530;DHT22;251;48.704;9.210;2022-10-16T00:47:39;14.90;72.80
530;DHT22;251;48.704;9.210;2022-10-16T00:50:09;14.80;72.90
530;DHT22;251;48.704;9.210;2022-10-16T00:52:40;15.00;72.70
530;DHT22;251;48.704;9.210;2022-10-16T00:55:10;14.90;72.80
530;DHT22;251;48.704;9.210;2022-10-16T00:57:37;14.90;73.60
530;DHT22;251;48.704;9.210;2022-10-16T01:00:07;14.80;72.80
530;DHT22;251;48.704;9.210;2022-10-16T01:02:34;14.80;73.70
530;DHT22;251;48.704;9.210;2022-10-16T01:05:01;14.90;70.70
530;DHT22;251;48.704;9.210;2022-10-16T01:07:38;14.60;70.50
530;DHT22;251;48.704;9.210;2022-10-16T01:10:17;14.60;71.20
530;DHT22;251;48.704;9.210;2022-10-16T01:12:50;14.50;72.90
530;DHT22;251;48.704;9.210;2022-10-16T01:15:24;14.50;74.10
530;DHT22;251;48.704;9.210;2022-10-16T01:17:56;14.60;74.10
530;DHT22;251;48.704;9.210;2022-10-16T01:20:27;14.50;73.10
530;DHT22;251;48.704;9.210;2022-10-16T01:23:06;14.70;72.50
530;DHT22;251;48.704;9.210;2022-10-16T01:25:49;14.40;73.70
530;DHT22;251;48.704;9.210;2022-10-16T01:28:24;14.20;74.90
530;DHT22;251;48.704;9.210;2022-10-16T01:30:56;14.50;74.10
530;DHT22;251;48.704;9.210;2022-10-16T01:33:28;14.40;74.90
530;DHT22;251;48.704;9.210;2022-10-16T01:36:00;14.40;76.40
530;DHT22;251;48.704;9.210;2022-10-16T01:38:32;14.40;75.40
530;DHT22;251;48.704;9.210;2022-10-16T01:41:04;14.20;72.40
530;DHT22;251;48.704;9.210;2022-10-16T01:43:38;14.40;73.30
530;DHT22;251;48.704;9.210;2022-10-16T01:46:08;14.40;74.40
530;DHT22;251;48.704;9.210;2022-10-16T01:48:37;14.00;75.80
530;DHT22;251;48.704;9.210;2022-10-16T01:51:06;14.30;74.50
530;DHT22;251;48.704;9.210;2022-10-16T01:53:34;14.40;75.60
530;DHT22;251;48.704;9.210;2022-10-16T01:56:04;14.30;76.90
530;DHT22;251;48.704;9.210;2022-10-16T01:58:36;14.60;77.30
530;DHT22;251;48.704;9.210;2022-10-16T02:01:05;14.50;78.10
530;DHT22;251;48.704;9.210;2022-10-16T02:03:34;14.50;76.20
530;DHT22;251;48.704;9.210;2022-10-16T02:06:03;14.40;74.50
530;DHT22;251;48.704;9.210;2022-10-16T02:08:30;14.40;75.80
530;DHT22;251;48.704;9.210;2022-10-16T02:10:59;14.30;75.30
530;DHT22;251;48.704;9.210;2022-10-16T02:13:31;14.30;76.80
530;DHT22;251;48.704;9.210;2022-10-16T02:16:01;14.30;77.90
530;DHT22;251;48.704;9.210;2022-10-16T02:18:28;14.10;78.80
530;DHT22;251;48.704;9.210;2022-10-16T02:20:59;14.00;80.10
530;DHT22;251;48.704;9.210;2022-10-16T02:23:33;14.20;79.00
530;DHT22;251;48.704;9.210;2022-10-16T02:26:03;14.30;78.70
530;DHT22;251;48.704;9.210;2022-10-16T02:28:35;14.20;79.10
530;DHT22;251;48.704;9.210;2022-10-16T02:31:09;14.00;79.40
530;DHT22;251;48.704;9.210;2022-10-16T02:33:38;14.00;80.50
530;DHT22;251;48.704;9.210;2022-10-16T02:36:07;14.30;80.50
530;DHT22;251;48.704;9.210;2022-10-16T02:38:34;14.20;80.60
530;DHT22;251;48.704;9.210;2022-10-16T02:41:02;14.20;80.60
530;DHT22;251;48.704;9.210;2022-10-16T02:43:29;14.30;80.50
530;DHT22;251;48.704;9.210;2022-10-16T02:45:56;14.10;81.50
530;DHT22;251;48.704;9.210;2022-10-16T02:48:25;14.10;81.50
530;DHT22;251;48.704;9.210;2022-10-16T02:50:51;14.20;81.50
530;DHT22;251;48.704;9.210;2022-10-16T02:53:18;14.30;81.80
530;DHT22;251;48.704;9.210;2022-10-16T02:55:45;14.10;82.10
530;DHT22;251;48.704;9.210;2022-10-16T02:58:15;14.20;81.10
530;DHT22;251;48.704;9.210;2022-10-16T03:00:42;14.30;81.90
530;DHT22;251;48.704;9.210;2022-10-16T03:03:09;13.90;84.10
530;DHT22;251;48.704;9.210;2022-10-16T03:05:37;14.00;81.80
530;DHT22;251;48.704;9.210;2022-10-16T03:08:04;14.30;81.80
530;DHT22;251;48.704;9.210;2022-10-16T03:10:31;14.10;81.30
530;DHT22;251;48.704;9.210;2022-10-16T03:12:57;14.10;80.30
530;DHT22;251;48.704;9.210;2022-10-16T03:15:24;13.90;80.50
530;DHT22;251;48.704;9.210;2022-10-16T03:17:51;13.80;81.00
530;DHT22;251;48.704;9.210;2022-10-16T03:20:18;14.00;82.20
530;DHT22;251;48.704;9.210;2022-10-16T03:22:46;14.20;83.00
530;DHT22;251;48.704;9.210;2022-10-16T03:25:13;13.90;81.40
530;DHT22;251;48.704;9.210;2022-10-16T03:27:40;14.00;81.50
530;DHT22;251;48.704;9.210;2022-10-16T03:30:08;14.00;81.50
530;DHT22;251;48.704;9.210;2022-10-16T03:32:35;14.00;82.40
530;DHT22;251;48.704;9.210;2022-10-16T03:35:02;14.10;82.30
530;DHT22;251;48.704;9.210;2022-10-16T03:37:29;14.00;81.30
530;DHT22;251;48.704;9.210;2022-10-16T03:39:57;14.00;82.10
530;DHT22;251;48.704;9.210;2022-10-16T03:42:24;14.00;80.50
530;DHT22;251;48.704;9.210;2022-10-16T03:44:51;14.00;81.90
530;DHT22;251;48.704;9.210;2022-10-16T03:47:18;13.80;80.90
530;DHT22;251;48.704;9.210;2022-10-16T03:49:47;13.70;81.80
530;DHT22;251;48.704;9.210;2022-10-16T03:52:14;14.00;82.60
530;DHT22;251;48.704;9.210;2022-10-16T03:54:41;13.70;82.70
530;DHT22;251;48.704;9.210;2022-10-16T03:57:09;13.80;82.20
530;DHT22;251;48.704;9.210;2022-10-16T03:59:36;13.70;80.70
530;DHT22;251;48.704;9.210;2022-10-16T04:02:03;14.00;80.40
530;DHT22;251;48.704;9.210;2022-10-16T04:04:29;14.00;81.00
530;DHT22;251;48.704;9.210;2022-10-16T04:06:56;14.10;81.60
530;DHT22;251;48.704;9.210;2022-10-16T04:09:23;14.00;81.50
530;DHT22;251;48.704;9.210;2022-10-16T04:11:50;13.80;82.80
530;DHT22;251;48.704;9.210;2022-10-16T04:14:19;14.00;81.70
530;DHT22;251;48.704;9.210;2022-10-16T04:16:46;14.10;81.60
530;DHT22;251;48.704;9.210;2022-10-16T04:19:13;13.80;81.00
530;DHT22;251;48.704;9.210;2022-10-16T04:21:39;13.80;82.00
530;DHT22;251;48.704;9.210;2022-10-16T04:24:06;14.00;82.60
530;DHT22;251;48.704;9.210;2022-10-16T04:26:33;14.00;83.40
530;DHT22;251;48.704;9.210;2022-10-16T04:29:00;13.90;85.10
530;DHT22;251;48.704;9.210;2022-10-16T04:31:28;13.70;85.10
530;DHT22;251;48.704;9.210;2022-10-16T04:33:55;13.90;83.40
530;DHT22;251;48.704;9.210;2022-10-16T04:36:22;14.00;84.80
530;DHT22;251;48.704;9.210;2022-10-16T04:38:48;13.70;83.50
530;DHT22;251;48.704;9.210;2022-10-16T04:41:16;13.70;82.40
530;DHT22;251;48.704;9.210;2022-10-16T04:43:43;14.00;82.40
530;DHT22;251;48.704;9.210;2022-10-16T04:46:10;14.00;83.20
530;DHT22;251;48.704;9.210;2022-10-16T04:48:38;14.10;83.20
530;DHT22;251;48.704;9.210;2022-10-16T04:51:05;13.80;82.80
530;DHT22;251;48.704;9.210;2022-10-16T04:53:32;13.70;83.20
530;DHT22;251;48.704;9.210;2022-10-16T04:55:59;13.70;83.40
530;DHT22;251;48.704;9.210;2022-10-16T04:58:26;13.60;83.50
530;DHT22;251;48.704;9.210;2022-10-16T05:00:53;13.70;82.70
530;DHT22;251;48.704;9.210;2022-10-16T05:03:20;14.00;84.50
530;DHT22;251;48.704;9.210;2022-10-16T05:05:48;13.90;84.90
530;DHT22;251;48.704;9.210;2022-10-16T05:08:16;13.80;84.90
530;DHT22;251;48.704;9.210;2022-10-16T05:10:44;13.60;84.40
530;DHT22;251;48.704;9.210;2022-10-16T05:13:11;13.60;83.60
530;DHT22;251;48.704;9.210;2022-10-16T05:15:37;13.70;83.80
530;DHT22;251;48.704;9.210;2022-10-16T05:18:04;13.60;83.90
530;DHT22;251;48.704;9.210;2022-10-16T05:20:31;13.50;84.10
530;DHT22;251;48.704;9.210;2022-10-16T05:23:00;13.60;83.50
530;DHT22;251;48.704;9.210;2022-10-16T05:25:27;13.40;84.00
530;DHT22;251;48.704;9.210;2022-10-16T05:27:54;13.50;85.20
530;DHT22;251;48.704;9.210;2022-10-16T05:30:21;13.70;86.40
530;DHT22;251;48.704;9.210;2022-10-16T05:32:49;13.60;85.40
530;DHT22;251;48.704;9.210;2022-10-16T05:35:17;13.40;86.30
530;DHT22;251;48.704;9.210;2022-10-16T05:37:45;13.90;87.40
530;DHT22;251;48.704;9.210;2022-10-16T05:40:14;13.50;85.50
530;DHT22;251;48.704;9.210;2022-10-16T05:42:41;13.30;84.20
530;DHT22;251;48.704;9.210;2022-10-16T05:45:09;13.60;86.10
530;DHT22;251;48.704;9.210;2022-10-16T05:47:37;13.90;87.60
530;DHT22;251;48.704;9.210;2022-10-16T05:50:05;13.80;83.80
530;DHT22;251;48.704;9.210;2022-10-16T05:52:32;13.30;82.10
530;DHT22;251;48.704;9.210;2022-10-16T05:54:59;13.40;81.90
530;DHT22;251;48.704;9.210;2022-10-16T05:57:27;13.40;82.60
530;DHT22;251;48.704;9.210;2022-10-16T05:59:54;13.60;83.70
530;DHT22;251;48.704;9.210;2022-10-16T06:02:20;13.60;83.40
530;DHT22;251;48.704;9.210;2022-10-16T06:04:47;13.60;82.70
530;DHT22;251;48.704;9.210;2022-10-16T06:07:14;13.30;82.10
530;DHT22;251;48.704;9.210;2022-10-16T06:09:41;13.60;83.00
530;DHT22;251;48.704;9.210;2022-10-16T06:12:08;13.30;84.70
530;DHT22;251;48.704;9.210;2022-10-16T06:14:36;13.40;87.70
530;DHT22;251;48.704;9.210;2022-10-16T06:17:03;13.30;88.00
530;DHT22;251;48.704;9.210;2022-10-16T06:19:30;13.30;89.90
530;DHT22;251;48.704;9.210;2022-10-16T06:21:57;13.60;90.00
530;DHT22;251;48.704;9.210;2022-10-16T06:24:24;13.30;88.10
530;DHT22;251;48.704;9.210;2022-10-16T06:26:51;13.20;88.20
530;DHT22;251;48.704;9.210;2022-10-16T06:29:18;13.30;90.00
530;DHT22;251;48.704;9.210;2022-10-16T06:31:47;13.30;91.30
530;DHT22;251;48.704;9.210;2022-10-16T06:34:13;13.60;92.90
530;DHT22;251;48.704;9.210;2022-10-16T06:36:41;13.20;93.10
530;DHT22;251;48.704;9.210;2022-10-16T06:39:08;13.30;93.90
530;DHT22;251;48.704;9.210;2022-10-16T06:41:35;13.30;93.40
530;DHT22;251;48.704;9.210;2022-10-16T06:44:14;13.70;94.00
530;DHT22;251;48.704;9.210;2022-10-16T06:46:41;13.80;95.10
530;DHT22;251;48.704;9.210;2022-10-16T06:49:09;13.70;95.80
530;DHT22;251;48.704;9.210;2022-10-16T06:51:36;13.90;97.10
530;DHT22;251;48.704;9.210;2022-10-16T06:54:06;13.90;97.60
530;DHT22;251;48.704;9.210;2022-10-16T06:56:33;14.00;98.70
530;DHT22;251;48.704;9.210;2022-10-16T06:59:01;13.70;99.00
530;DHT22;251;48.704;9.210;2022-10-16T07:01:28;13.90;99.70
530;DHT22;251;48.704;9.210;2022-10-16T07:03:55;14.00;99.40
530;DHT22;251;48.704;9.210;2022-10-16T07:06:25;14.00;99.70
530;DHT22;251;48.704;9.210;2022-10-16T07:08:52;13.70;99.90
530;DHT22;251;48.704;9.210;2022-10-16T07:11:20;13.90;99.70
530;DHT22;251;48.704;9.210;2022-10-16T07:13:48;14.30;99.50
530;DHT22;251;48.704;9.210;2022-10-16T07:16:17;13.80;99.10
530;DHT22;251;48.704;9.210;2022-10-16T07:18:58;14.10;99.60
530;DHT22;251;48.704;9.210;2022-10-16T07:21:35;14.10;99.00
530;DHT22;251;48.704;9.210;2022-10-16T07:24:02;14.00;99.10
530;DHT22;251;48.704;9.210;2022-10-16T07:26:33;14.20;99.90
530;DHT22;251;48.704;9.210;2022-10-16T07:29:02;14.30;99.90
530;DHT22;251;48.704;9.210;2022-10-16T07:31:32;14.10;99.90
530;DHT22;251;48.704;9.210;2022-10-16T07:33:59;14.40;99.90
530;DHT22;251;48.704;9.210;2022-10-16T07:36:26;14.40;99.90
530;DHT22;251;48.704;9.210;2022-10-16T07:38:55;14.60;99.90
530;DHT22;251;48.704;9.210;2022-10-16T07:41:22;14.30;99.90
530;DHT22;251;48.704;9.210;2022-10-16T07:43:51;14.30;99.90
530;DHT22;251;48.704;9.210;2022-10-16T07:46:19;14.30;99.90
530;DHT22;251;48.704;9.210;2022-10-16T07:48:47;14.40;99.90
530;DHT22;251;48.704;9.210;2022-10-16T07:51:16;14.60;99.90
530;DHT22;251;48.704;9.210;2022-10-16T07:53:44;14.40;99.90
530;DHT22;251;48.704;9.210;2022-10-16T07:56:12;14.50;99.90
530;DHT22;251;48.704;9.210;2022-10-16T07:58:39;14.50;99.90
530;DHT22;251;48.704;9.210;2022-10-16T08:01:08;14.80;99.90
530;DHT22;251;48.704;9.210;2022-10-16T08:03:35;14.80;99.90
530;DHT22;251;48.704;9.210;2022-10-16T08:06:02;14.90;99.90
530;DHT22;251;48.704;9.210;2022-10-16T08:08:30;14.90;99.90
530;DHT22;251;48.704;9.210;2022-10-16T08:10:57;14.80;99.90
530;DHT22;251;48.704;9.210;2022-10-16T08:13:25;14.80;99.90
530;DHT22;251;48.704;9.210;2022-10-16T08:15:54;14.90;99.90
530;DHT22;251;48.704;9.210;2022-10-16T08:18:22;15.00;99.90
530;DHT22;251;48.704;9.210;2022-10-16T08:20:55;15.00;99.90
530;DHT22;251;48.704;9.210;2022-10-16T08:23:22;15.30;99.90
530;DHT22;251;48.704;9.210;2022-10-16T08:25:51;14.90;99.90
530;DHT22;251;48.704;9.210;2022-10-16T08:28:19;15.30;99.90
530;DHT22;251;48.704;9.210;2022-10-16T08:30:47;15.10;99.90
530;DHT22;251;48.704;9.210;2022-10-16T08:33:14;15.20;99.90
530;DHT22;251;48.704;9.210;2022-10-16T08:35:41;15.30;99.90
530;DHT22;251;48.704;9.210;2022-10-16T08:38:08;15.40;99.90
530;DHT22;251;48.704;9.210;2022-10-16T08:40:37;15.60;99.90
530;DHT22;251;48.704;9.210;2022-10-16T08:43:21;15.80;99.90
530;DHT22;251;48.704;9.210;2022-10-16T08:46:11;15.70;99.90
530;DHT22;251;48.704;9.210;2022-10-16T08:48:45;16.00;99.90
530;DHT22;251;48.704;9.210;2022-10-16T08:51:18;16.00;99.90
530;DHT22;251;48.704;9.210;2022-10-16T08:53:50;15.90;93.90
530;DHT22;251;48.704;9.210;2022-10-16T08:56:19;15.90;95.20
530;DHT22;251;48.704;9.210;2022-10-16T08:58:46;16.10;93.90
530;DHT22;251;48.704;9.210;2022-10-16T09:01:16;16.30;93.60
530;DHT22;251;48.704;9.210;2022-10-16T09:06:47;16.00;92.90
530;DHT22;251;48.704;9.210;2022-10-16T09:09:45;16.00;93.30
530;DHT22;251;48.704;9.210;2022-10-16T09:12:19;16.30;86.30
530;DHT22;251;48.704;9.210;2022-10-16T09:14:58;16.50;83.90
530;DHT22;251;48.704;9.210;2022-10-16T09:17:40;16.40;81.10
530;DHT22;251;48.704;9.210;2022-10-16T09:20:34;16.50;81.80
530;DHT22;251;48.704;9.210;2022-10-16T09:23:14;16.40;74.80
530;DHT22;251;48.704;9.210;2022-10-16T09:25:45;16.70;72.60
530;DHT22;251;48.704;9.210;2022-10-16T09:28:13;16.40;72.40
530;DHT22;251;48.704;9.210;2022-10-16T09:30:41;16.60;70.00
530;DHT22;251;48.704;9.210;2022-10-16T09:33:11;16.80;64.90
530;DHT22;251;48.704;9.210;2022-10-16T09:35:40;17.10;62.30
530;DHT22;251;48.704;9.210;2022-10-16T09:38:08;17.40;63.20
530;DHT22;251;48.704;9.210;2022-10-16T09:40:37;17.30;61.00
530;DHT22;251;48.704;9.210;2022-10-16T09:43:19;17.40;60.40
530;DHT22;251;48.704;9.210;2022-10-16T09:45:54;17.80;61.30
530;DHT22;251;48.704;9.210;2022-10-16T09:48:23;17.60;58.40
530;DHT22;251;48.704;9.210;2022-10-16T09:50:57;17.80;58.10
530;DHT22;251;48.704;9.210;2022-10-16T09:53:23;17.80;58.30
530;DHT22;251;48.704;9.210;2022-10-16T09:55:53;17.90;58.40
530;DHT22;251;48.704;9.210;2022-10-16T09:58:21;18.00;56.90
530;DHT22;251;48.704;9.210;2022-10-16T10:00:50;18.10;55.30
530;DHT22;251;48.704;9.210;2022-10-16T10:03:34;18.30;54.70
530;DHT22;251;48.704;9.210;2022-10-16T10:06:13;18.00;52.80
530;DHT22;251;48.704;9.210;2022-10-16T10:08:51;18.10;53.80
530;DHT22;251;48.704;9.210;2022-10-16T10:11:22;18.30;49.30
530;DHT22;251;48.704;9.210;2022-10-16T10:14:05;18.70;47.40
530;DHT22;251;48.704;9.210;2022-10-16T10:16:32;18.70;44.30
530;DHT22;251;48.704;9.210;2022-10-16T10:19:01;18.90;44.40
530;DHT22;251;48.704;9.210;2022-10-16T10:21:32;19.10;45.20
530;DHT22;251;48.704;9.210;2022-10-16T10:23:59;19.10;44.00
530;DHT22;251;48.704;9.210;2022-10-16T10:26:31;19.30;41.80
530;DHT22;251;48.704;9.210;2022-10-16T10:29:06;19.20;40.20
530;DHT22;251;48.704;9.210;2022-10-16T10:31:41;19.20;38.70
530;DHT22;251;48.704;9.210;2022-10-16T10:34:25;19.60;37.30
530;DHT22;251;48.704;9.210;2022-10-16T10:37:01;19.30;36.00
530;DHT22;251;48.704;9.210;2022-10-16T10:39:38;19.80;36.00
530;DHT22;251;48.704;9.210;2022-10-16T10:42:15;19.60;36.20
530;DHT22;251;48.704;9.210;2022-10-16T10:44:56;19.50;35.40
530;DHT22;251;48.704;9.210;2022-10-16T10:47:31;19.70;34.30
530;DHT22;251;48.704;9.210;2022-10-16T10:50:07;19.70;34.60
530;DHT22;251;48.704;9.210;2022-10-16T10:52:48;19.70;35.90
530;DHT22;251;48.704;9.210;2022-10-16T10:55:23;19.80;36.00
530;DHT22;251;48.704;9.210;2022-10-16T10:58:04;19.70;36.20
530;DHT22;251;48.704;9.210;2022-10-16T11:00:42;20.00;35.90
530;DHT22;251;48.704;9.210;2022-10-16T11:03:26;20.10;32.60
530;DHT22;251;48.704;9.210;2022-10-16T11:06:00;20.00;33.00
530;DHT22;251;48.704;9.210;2022-10-16T11:08:35;20.30;32.40
530;DHT22;251;48.704;9.210;2022-10-16T11:11:04;20.60;32.50
530;DHT22;251;48.704;9.210;2022-10-16T11:13:35;21.00;32.20
530;DHT22;251;48.704;9.210;2022-10-16T11:16:13;20.90;31.20
530;DHT22;251;48.704;9.210;2022-10-16T11:18:48;20.90;30.00
530;DHT22;251;48.704;9.210;2022-10-16T11:21:19;21.00;29.10
530;DHT22;251;48.704;9.210;2022-10-16T11:23:53;21.00;28.90
530;DHT22;251;48.704;9.210;2022-10-16T11:26:24;21.20;28.10
530;DHT22;251;48.704;9.210;2022-10-16T11:28:54;21.40;27.50
530;DHT22;251;48.704;9.210;2022-10-16T11:31:27;21.50;27.10
530;DHT22;251;48.704;9.210;2022-10-16T11:34:01;21.40;26.40
530;DHT22;251;48.704;9.210;2022-10-16T11:36:36;21.40;27.50
530;DHT22;251;48.704;9.210;2022-10-16T11:39:18;21.50;26.00
530;DHT22;251;48.704;9.210;2022-10-16T11:41:49;21.50;27.70
530;DHT22;251;48.704;9.210;2022-10-16T11:44:27;21.50;27.90
530;DHT22;251;48.704;9.210;2022-10-16T11:47:05;21.30;27.90
530;DHT22;251;48.704;9.210;2022-10-16T11:49:36;21.60;29.10
530;DHT22;251;48.704;9.210;2022-10-16T11:52:14;21.60;26.70
530;DHT22;251;48.704;9.210;2022-10-16T11:54:47;21.70;25.40
530;DHT22;251;48.704;9.210;2022-10-16T11:57:17;21.80;25.40
530;DHT22;251;48.704;9.210;2022-10-16T11:59:49;21.90;25.80
530;DHT22;251;48.704;9.210;2022-10-16T12:02:40;21.80;26.20
530;DHT22;251;48.704;9.210;2022-10-16T12:05:18;21.80;26.20
530;DHT22;251;48.704;9.210;2022-10-16T12:07:54;21.80;26.70
530;DHT22;251;48.704;9.210;2022-10-16T12:10:25;21.90;25.80
530;DHT22;251;48.704;9.210;2022-10-16T12:12:52;22.00;25.90
530;DHT22;251;48.704;9.210;2022-10-16T12:15:22;22.10;26.30
530;DHT22;251;48.704;9.210;2022-10-16T12:17:50;22.10;24.90
530;DHT22;251;48.704;9.210;2022-10-16T12:20:26;22.00;25.70
530;DHT22;251;48.704;9.210;2022-10-16T12:22:59;21.90;25.90
530;DHT22;251;48.704;9.210;2022-10-16T12:25:29;21.90;24.10
530;DHT22;251;48.704;9.210;2022-10-16T12:28:01;21.80;24.30
530;DHT22;251;48.704;9.210;2022-10-16T12:30:31;21.90;25.30
530;DHT22;251;48.704;9.210;2022-10-16T12:33:00;21.80;24.10
530;DHT22;251;48.704;9.210;2022-10-16T12:35:30;21.90;25.40
530;DHT22;251;48.704;9.210;2022-10-16T12:38:08;21.80;24.50
530;DHT22;251;48.704;9.210;2022-10-16T12:40:43;21.80;23.80
530;DHT22;251;48.704;9.210;2022-10-16T12:43:13;21.70;24.70
530;DHT22;251;48.704;9.210;2022-10-16T12:45:59;21.70;22.90
530;DHT22;251;48.704;9.210;2022-10-16T12:48:27;21.80;24.00
530;DHT22;251;48.704;9.210;2022-10-16T12:50:55;21.70;24.30
530;DHT22;251;48.704;9.210;2022-10-16T12:53:25;21.70;24.40
530;DHT22;251;48.704;9.210;2022-10-16T12:56:03;21.70;24.00
530;DHT22;251;48.704;9.210;2022-10-16T12:58:43;21.70;25.30
530;DHT22;251;48.704;9.210;2022-10-16T13:01:25;21.70;25.00
530;DHT22;251;48.704;9.210;2022-10-16T13:04:22;21.70;25.00
530;DHT22;251;48.704;9.210;2022-10-16T13:06:58;21.70;24.30
530;DHT22;251;48.704;9.210;2022-10-16T13:09:39;21.70;25.00
530;DHT22;251;48.704;9.210;2022-10-16T13:12:29;21.70;26.70
530;DHT22;251;48.704;9.210;2022-10-16T13:15:16;21.70;25.40
530;DHT22;251;48.704;9.210;2022-10-16T13:17:52;21.70;25.20
530;DHT22;251;48.704;9.210;2022-10-16T13:20:28;21.70;25.80
530;DHT22;251;48.704;9.210;2022-10-16T13:23:05;21.70;24.60
530;DHT22;251;48.704;9.210;2022-10-16T13:25:46;21.70;24.30
530;DHT22;251;48.704;9.210;2022-10-16T13:28:14;21.70;23.30
530;DHT22;251;48.704;9.210;2022-10-16T13:30:50;21.70;24.70
530;DHT22;251;48.704;9.210;2022-10-16T13:33:20;21.60;25.00
530;DHT22;251;48.704;9.210;2022-10-16T13:35:49;21.60;24.10
530;DHT22;251;48.704;9.210;2022-10-16T13:38:18;21.60;24.50
530;DHT22;251;48.704;9.210;2022-10-16T13:40:53;21.60;24.20
530;DHT22;251;48.704;9.210;2022-10-16T13:43:23;21.60;24.10
530;DHT22;251;48.704;9.210;2022-10-16T13:45:59;21.70;25.30
530;DHT22;251;48.704;9.210;2022-10-16T13:48:28;21.60;26.60
530;DHT22;251;48.704;9.210;2022-10-16T13:50:59;21.60;26.00
530;DHT22;251;48.704;9.210;2022-10-16T13:53:27;21.40;25.00
530;DHT22;251;48.704;9.210;2022-10-16T13:55:56;21.60;24.20
530;DHT22;251;48.704;9.210;2022-10-16T13:58:23;21.60;25.10
530;DHT22;251;48.704;9.210;2022-10-16T14:00:55;21.50;25.50
530;DHT22;251;48.704;9.210;2022-10-16T14:03:23;21.50;25.80
530;DHT22;251;48.704;9.210;2022-10-16T14:05:52;21.50;26.40
530;DHT22;251;48.704;9.210;2022-10-16T14:08:21;21.50;26.00
530;DHT22;251;48.704;9.210;2022-10-16T14:10:50;21.40;25.90
530;DHT22;251;48.704;9.210;2022-10-16T14:13:22;21.40;26.60
530;DHT22;251;48.704;9.210;2022-10-16T14:15:51;21.30;26.40
530;DHT22;251;48.704;9.210;2022-10-16T14:18:22;21.30;27.40
530;DHT22;251;48.704;9.210;2022-10-16T14:20:50;21.30;29.20
530;DHT22;251;48.704;9.210;2022-10-16T14:23:21;21.30;28.60
530;DHT22;251;48.704;9.210;2022-10-16T14:25:49;21.20;30.90
530;DHT22;251;48.704;9.210;2022-10-16T14:28:19;21.20;28.70
530;DHT22;251;48.704;9.210;2022-10-16T14:30:51;21.20;29.00
530;DHT22;251;48.704;9.210;2022-10-16T14:33:22;21.20;30.70
530;DHT22;251;48.704;9.210;2022-10-16T14:36:01;21.20;29.40
530;DHT22;251;48.704;9.210;2022-10-16T14:38:29;21.20;29.40
530;DHT22;251;48.704;9.210;2022-10-16T14:40:57;21.20;29.00
530;DHT22;251;48.704;9.210;2022-10-16T14:43:31;21.20;30.50
530;DHT22;251;48.704;9.210;2022-10-16T14:45:59;21.20;30.40
530;DHT22;251;48.704;9.210;2022-10-16T14:48:26;21.10;30.20
530;DHT22;251;48.704;9.210;2022-10-16T14:50:53;21.10;31.40
530;DHT22;251;48.704;9.210;2022-10-16T14:53:20;21.20;32.00
530;DHT22;251;48.704;9.210;2022-10-16T14:55:47;21.20;33.30
530;DHT22;251;48.704;9.210;2022-10-16T14:58:15;21.10;32.80
530;DHT22;251;48.704;9.210;2022-10-16T15:00:44;21.20;31.90
530;DHT22;251;48.704;9.210;2022-10-16T15:03:11;21.10;31.70
530;DHT22;251;48.704;9.210;2022-10-16T15:05:39;21.10;31.40
530;DHT22;251;48.704;9.210;2022-10-16T15:08:06;21.10;31.40
530;DHT22;251;48.704;9.210;2022-10-16T15:10:39;21.20;33.20
530;DHT22;251;48.704;9.210;2022-10-16T15:13:10;21.10;32.70
530;DHT22;251;48.704;9.210;2022-10-16T15:15:40;21.10;32.10
530;DHT22;251;48.704;9.210;2022-10-16T15:18:10;21.10;32.10
530;DHT22;251;48.704;9.210;2022-10-16T15:20:38;21.10;32.30
530;DHT22;251;48.704;9.210;2022-10-16T15:23:09;21.10;33.80
530;DHT22;251;48.704;9.210;2022-10-16T15:25:39;21.00;34.90
530;DHT22;251;48.704;9.210;2022-10-16T15:28:08;21.00;35.70
530;DHT22;251;48.704;9.210;2022-10-16T15:30:36;21.00;36.10
530;DHT22;251;48.704;9.210;2022-10-16T15:33:05;21.10;36.60
530;DHT22;251;48.704;9.210;2022-10-16T15:35:33;20.90;37.40
530;DHT22;251;48.704;9.210;2022-10-16T15:38:00;20.80;37.00
530;DHT22;251;48.704;9.210;2022-10-16T15:40:27;20.80;37.80
530;DHT22;251;48.704;9.210;2022-10-16T15:42:54;20.70;38.30
530;DHT22;251;48.704;9.210;2022-10-16T15:45:21;20.80;39.40
530;DHT22;251;48.704;9.210;2022-10-16T15:47:47;20.80;41.10
530;DHT22;251;48.704;9.210;2022-10-16T15:50:15;20.50;42.20
530;DHT22;251;48.704;9.210;2022-10-16T15:52:43;20.40;42.90
530;DHT22;251;48.704;9.210;2022-10-16T15:55:12;20.50;42.60
530;DHT22;251;48.704;9.210;2022-10-16T15:57:39;20.30;42.80
530;DHT22;251;48.704;9.210;2022-10-16T16:00:11;20.10;43.40
530;DHT22;251;48.704;9.210;2022-10-16T16:02:39;20.40;44.20
530;DHT22;251;48.704;9.210;2022-10-16T16:05:07;20.10;44.10
530;DHT22;251;48.704;9.210;2022-10-16T16:07:35;20.00;44.60
530;DHT22;251;48.704;9.210;2022-10-16T16:10:05;20.00;45.30
530;DHT22;251;48.704;9.210;2022-10-16T16:12:34;19.90;46.40
530;DHT22;251;48.704;9.210;2022-10-16T16:15:01;19.90;47.90
530;DHT22;251;48.704;9.210;2022-10-16T16:17:27;19.80;48.50
530;DHT22;251;48.704;9.210;2022-10-16T16:19:54;19.70;48.40
530;DHT22;251;48.704;9.210;2022-10-16T16:22:22;19.60;48.60
530;DHT22;251;48.704;9.210;2022-10-16T16:24:49;19.60;48.80
530;DHT22;251;48.704;9.210;2022-10-16T16:27:17;19.40;48.90
530;DHT22;251;48.704;9.210;2022-10-16T16:29:45;19.40;50.10
530;DHT22;251;48.704;9.210;2022-10-16T16:32:12;19.20;49.70
530;DHT22;251;48.704;9.210;2022-10-16T16:34:39;19.10;49.80
530;DHT22;251;48.704;9.210;2022-10-16T16:37:06;19.00;49.80
530;DHT22;251;48.704;9.210;2022-10-16T16:39:32;19.00;50.80
530;DHT22;251;48.704;9.210;2022-10-16T16:42:00;18.90;51.10
530;DHT22;251;48.704;9.210;2022-10-16T16:44:30;19.00;52.30
530;DHT22;251;48.704;9.210;2022-10-16T16:46:56;19.10;52.70
530;DHT22;251;48.704;9.210;2022-10-16T16:49:23;18.90;53.30
530;DHT22;251;48.704;9.210;2022-10-16T16:51:52;18.90;52.90
530;DHT22;251;48.704;9.210;2022-10-16T16:54:19;18.80;53.50
530;DHT22;251;48.704;9.210;2022-10-16T16:56:46;18.30;53.40